createdAt,value
2022-12-11T00:01:21.643Z,98829.14
2022-12-11T00:03:50.375Z,98830.09
2022-12-11T00:06:23.284Z,98824.47
2022-12-11T00:08:54.464Z,98812.70
2022-12-11T00:11:24.023Z,98814.48
2022-12-11T00:13:52.656Z,98817.99
2022-12-11T00:16:26.501Z,98811.04
2022-12-11T00:18:56.047Z,98802.95
2022-12-11T00:21:24.649Z,98799.11
2022-12-11T00:23:53.328Z,98796.25
2022-12-11T00:26:21.920Z,98793.30
2022-12-11T00:28:55.446Z,98791.05
2022-12-11T00:31:24.661Z,98784.27
2022-12-11T00:33:53.384Z,98782.71
2022-12-11T00:36:26.355Z,98779.75
2022-12-11T00:38:55.567Z,98773.16
2022-12-11T00:41:24.761Z,98775.05
2022-12-11T00:43:53.480Z,98773.52
2022-12-11T00:46:22.347Z,98758.77
2022-12-11T00:48:51.363Z,98762.02
2022-12-11T00:51:19.985Z,98755.92
2022-12-11T00:53:48.592Z,98764.20
2022-12-11T00:56:20.589Z,98767.08
2022-12-11T00:58:50.408Z,98753.58
2022-12-11T01:01:23.030Z,98747.66
2022-12-11T01:03:52.313Z,98744.66
2022-12-11T01:06:24.641Z,98740.35
2022-12-11T01:09:12.074Z,98729.33
2022-12-11T01:11:42.793Z,98731.95
2022-12-11T01:14:12.874Z,98727.78
2022-12-11T01:16:41.613Z,98720.97
2022-12-11T01:19:10.443Z,98719.85
2022-12-11T01:21:39.192Z,98720.55
2022-12-11T01:24:07.806Z,98719.13
2022-12-11T01:26:36.876Z,98710.76
2022-12-11T01:29:05.481Z,98702.02
2022-12-11T01:31:34.521Z,98695.67
2022-12-11T01:34:03.214Z,98690.10
2022-12-11T01:36:31.910Z,98685.98
2022-12-11T01:39:00.769Z,98685.31
2022-12-11T01:41:29.562Z,98678.34
2022-12-11T01:44:15.638Z,98661.02
2022-12-11T01:46:44.353Z,98654.44
2022-12-11T01:49:15.425Z,98663.71
2022-12-11T01:51:56.133Z,98658.40
2022-12-11T01:54:26.751Z,98663.36
2022-12-11T01:57:01.376Z,98651.74
2022-12-11T01:59:34.443Z,98645.07
2022-12-11T02:02:15.496Z,98646.25
2022-12-11T02:04:46.305Z,98645.32
2022-12-11T02:07:16.233Z,98645.59
2022-12-11T02:09:48.193Z,98652.64
2022-12-11T02:12:50.242Z,98651.88
2022-12-11T02:15:36.966Z,98640.30
2022-12-11T02:18:45.007Z,98640.17
2022-12-11T02:21:28.932Z,98641.55
2022-12-11T02:24:31.531Z,98636.88
2022-12-11T02:27:20.862Z,98641.06
2022-12-11T02:30:08.498Z,98643.52
2022-12-11T02:32:58.028Z,98640.16
2022-12-11T02:35:40.082Z,98633.04
2022-12-11T02:38:20.034Z,98628.15
2022-12-11T02:40:52.109Z,98633.84
2022-12-11T02:43:23.841Z,98627.51
2022-12-11T02:45:54.218Z,98622.27
2022-12-11T02:48:24.589Z,98616.33
2022-12-11T02:50:58.507Z,98616.27
2022-12-11T02:53:31.520Z,98619.48
2022-12-11T02:56:12.565Z,98622.02
2022-12-11T02:58:55.321Z,98620.75
2022-12-11T03:01:28.208Z,98622.77
2022-12-11T03:03:58.675Z,98624.95
2022-12-11T03:06:36.563Z,98615.31
2022-12-11T03:09:09.998Z,98614.29
2022-12-11T03:11:38.633Z,98611.30
2022-12-11T03:14:08.529Z,98604.64
2022-12-11T03:16:43.355Z,98597.16
2022-12-11T03:19:38.720Z,98590.17
2022-12-11T03:22:22.376Z,98584.33
2022-12-11T03:25:34.716Z,98584.31
2022-12-11T03:28:19.562Z,98582.73
2022-12-11T03:30:51.605Z,98577.25
2022-12-11T03:33:33.164Z,98573.15
2022-12-11T03:36:10.830Z,98571.11
2022-12-11T03:38:51.219Z,98566.54
2022-12-11T03:41:24.329Z,98565.27
2022-12-11T03:43:56.479Z,98559.92
2022-12-11T03:46:32.164Z,98554.97
2022-12-11T03:49:07.889Z,98536.98
2022-12-11T03:51:37.255Z,98523.54
2022-12-11T03:54:07.505Z,98510.89
2022-12-11T03:56:39.824Z,98499.92
2022-12-11T03:59:09.041Z,98500.15
2022-12-11T04:01:37.768Z,98498.58
2022-12-11T04:04:06.538Z,98496.39
2022-12-11T04:06:35.226Z,98498.91
2022-12-11T04:09:03.999Z,98499.03
2022-12-11T04:11:35.217Z,98495.23
2022-12-11T04:14:29.740Z,98492.57
2022-12-11T04:17:01.016Z,98480.63
2022-12-11T04:19:47.830Z,98470.87
2022-12-11T04:22:37.461Z,98466.16
2022-12-11T04:25:08.163Z,98451.26
2022-12-11T04:27:51.755Z,98453.41
2022-12-11T04:30:26.073Z,98441.81
2022-12-11T04:32:58.133Z,98435.88
2022-12-11T04:35:26.699Z,98432.60
2022-12-11T04:37:55.267Z,98429.10
2022-12-11T04:40:23.929Z,98427.94
2022-12-11T04:42:52.376Z,98421.45
2022-12-11T04:45:20.924Z,98412.76
2022-12-11T04:47:49.496Z,98409.63
2022-12-11T04:50:18.730Z,98407.89
2022-12-11T04:52:47.315Z,98405.67
2022-12-11T04:55:15.896Z,98398.44
2022-12-11T04:57:44.436Z,98395.50
2022-12-11T05:00:14.236Z,98399.31
2022-12-11T05:02:43.433Z,98398.95
2022-12-11T05:05:12.475Z,98399.59
2022-12-11T05:07:41.310Z,98394.84
2022-12-11T05:10:10.486Z,98395.49
2022-12-11T05:12:39.386Z,98394.66
2022-12-11T05:15:08.829Z,98388.23
2022-12-11T05:17:37.678Z,98396.09
2022-12-11T05:20:07.474Z,98393.18
2022-12-11T05:22:36.777Z,98393.04
2022-12-11T05:25:06.706Z,98395.71
2022-12-11T05:27:35.397Z,98397.66
2022-12-11T05:30:04.677Z,98394.61
2022-12-11T05:32:33.392Z,98386.31
2022-12-11T05:35:02.047Z,98381.70
2022-12-11T05:37:30.676Z,98378.64
2022-12-11T05:39:59.385Z,98368.99
2022-12-11T05:42:29.129Z,98363.65
2022-12-11T05:44:58.111Z,98363.20
2022-12-11T05:47:26.883Z,98361.33
2022-12-11T05:49:55.748Z,98360.16
2022-12-11T05:52:24.641Z,98355.23
2022-12-11T05:57:24.580Z,98362.38
2022-12-11T05:59:52.131Z,98359.86
2022-12-11T06:02:20.488Z,98351.85
2022-12-11T06:04:48.386Z,98346.36
2022-12-11T06:07:15.727Z,98348.24
2022-12-11T06:09:43.230Z,98342.85
2022-12-11T06:12:10.742Z,98344.33
2022-12-11T06:14:38.378Z,98339.55
2022-12-11T06:17:05.918Z,98334.19
2022-12-11T06:19:36.729Z,98327.45
2022-12-11T06:22:04.812Z,98328.30
2022-12-11T06:24:32.399Z,98323.20
2022-12-11T06:26:59.783Z,98316.91
2022-12-11T06:29:29.458Z,98307.48
2022-12-11T06:31:56.964Z,98304.27
2022-12-11T06:34:26.871Z,98298.85
2022-12-11T06:36:54.353Z,98301.04
2022-12-11T06:39:21.811Z,98301.04
2022-12-11T06:41:49.444Z,98299.05
2022-12-11T06:44:17.065Z,98287.34
2022-12-11T06:46:44.639Z,98282.69
2022-12-11T06:49:15.129Z,98272.95
2022-12-11T06:51:42.554Z,98272.15
2022-12-11T06:54:09.994Z,98275.75
2022-12-11T06:56:37.375Z,98271.92
2022-12-11T06:59:07.428Z,98273.31
2022-12-11T07:01:35.736Z,98271.10
2022-12-11T07:04:03.035Z,98275.65
2022-12-11T07:06:30.862Z,98265.92
2022-12-11T07:08:59.135Z,98253.75
2022-12-11T07:11:26.356Z,98240.07
2022-12-11T07:13:53.770Z,98243.09
2022-12-11T07:16:21.156Z,98230.05
2022-12-11T07:18:50.909Z,98218.20
2022-12-11T07:21:19.845Z,98211.59
2022-12-11T07:23:48.626Z,98210.39
2022-12-11T07:26:19.513Z,98207.47
2022-12-11T07:28:46.971Z,98212.29
2022-12-11T07:31:19.800Z,98218.72
2022-12-11T07:33:47.546Z,98219.64
2022-12-11T07:36:20.087Z,98231.46
2022-12-11T07:38:47.494Z,98228.29
2022-12-11T07:41:16.006Z,98229.36
2022-12-11T07:43:44.967Z,98227.42
2022-12-11T07:46:18.462Z,98225.45
2022-12-11T07:48:47.417Z,98222.83
2022-12-11T07:51:26.037Z,98218.54
2022-12-11T07:53:59.125Z,98212.67
2022-12-11T07:56:28.491Z,98212.18
2022-12-11T07:58:56.101Z,98210.14
2022-12-11T08:01:26.809Z,98204.77
2022-12-11T08:03:55.499Z,98202.48
2022-12-11T08:06:32.008Z,98199.19
2022-12-11T08:09:01.921Z,98199.35
2022-12-11T08:11:29.574Z,98200.31
2022-12-11T08:13:59.030Z,98204.34
2022-12-11T08:16:26.602Z,98200.68
2022-12-11T08:18:54.127Z,98187.40
2022-12-11T08:21:24.929Z,98181.82
2022-12-11T08:23:54.050Z,98179.21
2022-12-11T08:26:28.852Z,98174.89
2022-12-11T08:28:56.537Z,98175.67
2022-12-11T08:31:24.512Z,98169.13
2022-12-11T08:33:52.718Z,98171.63
2022-12-11T08:36:22.548Z,98163.33
2022-12-11T08:38:52.174Z,98158.67
2022-12-11T08:41:23.934Z,98150.31
2022-12-11T08:44:01.277Z,98145.94
2022-12-11T08:46:32.009Z,98141.70
2022-12-11T08:49:02.951Z,98137.10
2022-12-11T08:51:32.688Z,98133.34
2022-12-11T08:54:01.065Z,98121.41
2022-12-11T08:56:29.567Z,98110.67
2022-12-11T08:59:00.567Z,98101.27
2022-12-11T09:01:28.910Z,98094.85
2022-12-11T09:03:57.051Z,98092.27
2022-12-11T09:06:28.427Z,98098.75
2022-12-11T09:08:58.980Z,98094.55
2022-12-11T09:11:30.590Z,98093.49
2022-12-11T09:14:06.726Z,98099.17
2022-12-11T09:16:39.916Z,98092.86
2022-12-11T09:19:12.769Z,98098.48
2022-12-11T09:21:41.467Z,98098.19
2022-12-11T09:24:10.534Z,98088.10
2022-12-11T09:26:38.777Z,98079.80
2022-12-11T09:29:06.523Z,98083.06
2022-12-11T09:31:36.754Z,98081.88
2022-12-11T09:34:12.106Z,98072.36
2022-12-11T09:36:41.738Z,98068.77
2022-12-11T09:39:12.678Z,98075.17
2022-12-11T09:41:46.734Z,98068.36
2022-12-11T09:44:39.490Z,98069.67
2022-12-11T09:47:32.556Z,98064.38
2022-12-11T09:50:10.145Z,98079.19
2022-12-11T09:52:52.852Z,98079.49
2022-12-11T09:55:23.918Z,98073.16
2022-12-11T09:58:11.692Z,98067.24
2022-12-11T10:00:50.782Z,98067.69
2022-12-11T10:03:51.733Z,98075.52
2022-12-11T10:06:32.764Z,98075.48
2022-12-11T10:09:19.431Z,98078.56
2022-12-11T10:11:56.921Z,98071.23
2022-12-11T10:14:33.360Z,98060.15
2022-12-11T10:17:32.130Z,98055.17
2022-12-11T10:20:38.813Z,98046.48
2022-12-11T10:23:16.313Z,98039.66
2022-12-11T10:26:06.678Z,98032.09
2022-12-11T10:28:35.412Z,98020.07
2022-12-11T10:31:30.314Z,98017.20
2022-12-11T10:34:10.944Z,98003.82
2022-12-11T10:36:41.393Z,98002.45
2022-12-11T10:39:18.981Z,97995.54
2022-12-11T10:41:49.850Z,97995.16
2022-12-11T10:44:28.866Z,98002.13
2022-12-11T10:47:12.027Z,98002.15
2022-12-11T10:51:16.411Z,97992.11
2022-12-11T10:54:02.646Z,97993.58
2022-12-11T10:56:50.751Z,98001.54
2022-12-11T10:59:37.813Z,98002.88
2022-12-11T11:02:16.946Z,98015.72
2022-12-11T11:04:45.867Z,98030.69
2022-12-11T11:07:23.989Z,98026.60
2022-12-11T11:10:16.486Z,98022.19
2022-12-11T11:12:48.937Z,98023.77
2022-12-11T11:15:29.656Z,98024.73
2022-12-11T11:18:26.721Z,98023.84
2022-12-11T11:20:55.999Z,98025.42
2022-12-11T11:23:28.959Z,98023.02
2022-12-11T11:26:01.098Z,98028.09
2022-12-11T11:28:36.799Z,98038.52
2022-12-11T11:31:13.967Z,98048.33
2022-12-11T11:34:08.120Z,98054.10
2022-12-11T11:36:38.765Z,98065.20
2022-12-11T11:39:45.448Z,98070.33
2022-12-11T11:42:30.516Z,98062.06
2022-12-11T11:45:35.800Z,98061.44
2022-12-11T11:48:13.375Z,98057.60
2022-12-11T11:50:50.718Z,98067.52
2022-12-11T11:53:38.316Z,98074.38
2022-12-11T11:56:31.868Z,98082.17
2022-12-11T11:59:13.191Z,98092.02
2022-12-11T12:01:59.120Z,98092.34
2022-12-11T12:04:35.055Z,98097.14
2022-12-11T12:07:43.990Z,98097.44
2022-12-11T12:10:48.414Z,98108.02
2022-12-11T12:13:56.095Z,98123.46
2022-12-11T12:16:56.395Z,98114.76
2022-12-11T12:20:17.814Z,98114.38
2022-12-11T12:23:04.385Z,98114.66
2022-12-11T12:26:05.690Z,98130.79
2022-12-11T12:29:02.100Z,98135.96
2022-12-11T12:31:49.470Z,98135.77
2022-12-11T12:34:33.362Z,98135.27
2022-12-11T12:37:10.917Z,98142.39
2022-12-11T12:40:07.776Z,98140.52
2022-12-11T12:42:49.940Z,98136.96
2022-12-11T12:45:44.666Z,98135.39
2022-12-11T12:48:13.263Z,98142.95
2022-12-11T12:50:48.520Z,98147.93
2022-12-11T12:53:26.536Z,98159.52
2022-12-11T12:55:56.894Z,98176.16
2022-12-11T12:58:29.545Z,98172.86
2022-12-11T13:01:20.770Z,98166.17
2022-12-11T13:04:03.737Z,98179.05
